Time;durP1;ratioP1;P1;durP2;ratioP2;P2;SDS_P1;SDS_P2;PMS_P1;PMS_P2;Temp;Humidity;BMP_temperature;BMP_pressure;BME280_temperature;BME280_humidity;BME280_pressure;Samples;Min_cycle;Max_cycle;Signal;HPM_P1;HPM_P2
2024/01/26 00:00:13;;;;;;;0.88;0.77;;;;;;;;;;4958789;28;20173;-79
2024/01/26 00:02:41;;;;;;;2.38;2.28;;;;;;;;;;4948730;28;20050;-79
2024/01/26 00:05:09;;;;;;;0.98;0.85;;;;;;;;;;4972369;28;20085;-79
2024/01/26 00:07:37;;;;;;;0.10;0.10;;;;;;;;;;4967846;28;20053;-79
2024/01/26 00:10:05;;;;;;;9.63;4.25;;;;;;;;;;4972363;28;20039;-79
2024/01/26 00:12:34;;;;;;;1.58;1.10;;;;;;;;;;4970584;28;20420;-79
2024/01/26 00:15:01;;;;;;;0.70;0.70;;;;;;;;;;4969439;28;20038;-79
2024/01/26 00:17:29;;;;;;;11.95;1.65;;;;;;;;;;4966442;28;20051;-79
2024/01/26 00:19:56;;;;;;;5.85;2.90;;;;;;;;;;4977274;28;20042;-79
2024/01/26 00:22:23;;;;;;;1.20;1.20;;;;;;;;;;4978744;28;20054;-79
2024/01/26 00:24:51;;;;;;;0.20;0.20;;;;;;;;;;4976760;28;20065;-78
2024/01/26 00:27:18;;;;;;;0.82;0.82;;;;;;;;;;4979135;28;20100;-80
2024/01/26 00:29:46;;;;;;;1.08;1.08;;;;;;;;;;4983254;28;20085;-80
2024/01/26 00:32:13;;;;;;;0.10;0.10;;;;;;;;;;4975119;28;20043;-78
2024/01/26 00:34:41;;;;;;;1.17;1.08;;;;;;;;;;4977175;28;20531;-78
2024/01/26 00:37:08;;;;;;;1.45;1.17;;;;;;;;;;4969821;28;20796;-78
2024/01/26 00:39:36;;;;;;;0.57;0.57;;;;;;;;;;4967871;28;20043;-78
2024/01/26 00:42:03;;;;;;;3.42;2.33;;;;;;;;;;4974911;28;20038;-78
2024/01/26 00:44:30;;;;;;;0.68;0.68;;;;;;;;;;4971274;28;20053;-79
2024/01/26 00:46:58;;;;;;;3.88;2.92;;;;;;;;;;4975591;28;20038;-78
2024/01/26 00:49:25;;;;;;;0.30;0.30;;;;;;;;;;4973756;28;20113;-78
2024/01/26 00:52:08;;;;;;;1.08;0.68;;;;;;;;;;4968495;28;20047;-78
2024/01/26 00:54:35;;;;;;;0.15;0.15;;;;;;;;;;4977066;28;20058;-77
2024/01/26 00:57:04;;;;;;;0.88;0.30;;;;;;;;;;4971452;28;20074;-78
2024/01/26 00:59:31;;;;;;;0.32;0.32;;;;;;;;;;4974335;28;20047;-78
2024/01/26 01:01:59;;;;;;;0.60;0.60;;;;;;;;;;4973826;28;20047;-79
2024/01/26 01:04:27;;;;;;;0.45;0.45;;;;;;;;;;4980183;28;20409;-78
2024/01/26 01:06:54;;;;;;;0.95;0.95;;;;;;;;;;4972180;28;20456;-78
2024/01/26 01:09:22;;;;;;;0.10;0.10;;;;;;;;;;4972335;28;20047;-79
2024/01/26 01:11:49;;;;;;;0.38;0.38;;;;;;;;;;4971807;28;20042;-78
2024/01/26 01:14:18;;;;;;;0.95;0.95;;;;;;;;;;4964436;28;20109;-78
2024/01/26 01:16:46;;;;;;;0.57;0.57;;;;;;;;;;4967188;28;20043;-78
2024/01/26 01:19:13;;;;;;;5.30;2.92;;;;;;;;;;4971870;28;20078;-78
2024/01/26 01:21:41;;;;;;;0.20;0.20;;;;;;;;;;4965766;28;20055;-78
2024/01/26 01:24:08;;;;;;;0.25;0.25;;;;;;;;;;4976629;28;20129;-78
2024/01/26 01:26:36;;;;;;;0.32;0.32;;;;;;;;;;4973934;28;20053;-79
2024/01/26 01:29:04;;;;;;;0.20;0.20;;;;;;;;;;4974499;28;20053;-77
2024/01/26 01:31:31;;;;;;;9.02;8.25;;;;;;;;;;4974632;28;20117;-77
2024/01/26 01:33:58;;;;;;;0.88;0.88;;;;;;;;;;4970594;28;20039;-79
2024/01/26 01:36:26;;;;;;;0.40;0.40;;;;;;;;;;4972653;28;20440;-77
2024/01/26 01:38:53;;;;;;;0.10;0.10;;;;;;;;;;4969748;28;20126;-77
2024/01/26 01:41:21;;;;;;;0.20;0.20;;;;;;;;;;4970902;28;20504;-78
2024/01/26 01:43:55;;;;;;;1.90;0.95;;;;;;;;;;4967442;28;20055;-78
2024/01/26 01:46:23;;;;;;;7.18;3.00;;;;;;;;;;4968960;28;20047;-78
2024/01/26 01:48:51;;;;;;;2.67;2.08;;;;;;;;;;4955265;28;20093;-78
2024/01/26 01:51:19;;;;;;;2.35;2.15;;;;;;;;;;4965960;28;20559;-78
2024/01/26 01:53:47;;;;;;;2.47;1.88;;;;;;;;;;4973729;28;20134;-77
2024/01/26 01:56:15;;;;;;;1.92;1.25;;;;;;;;;;4971897;28;20051;-78
2024/01/26 01:58:43;;;;;;;0.30;0.30;;;;;;;;;;4967339;28;20047;-79
2024/01/26 02:01:11;;;;;;;0.22;0.22;;;;;;;;;;4969988;28;20047;-78
2024/01/26 02:03:40;;;;;;;0.17;0.17;;;;;;;;;;4974329;28;20058;-78
2024/01/26 02:06:07;;;;;;;20.00;2.20;;;;;;;;;;4972135;28;20058;-80
2024/01/26 02:08:35;;;;;;;6.30;2.15;;;;;;;;;;4977044;28;20698;-80
2024/01/26 02:11:03;;;;;;;1.08;1.00;;;;;;;;;;4976093;28;20118;-80
2024/01/26 02:13:30;;;;;;;0.20;0.20;;;;;;;;;;4976297;28;20047;-79
2024/01/26 02:15:58;;;;;;;0.15;0.15;;;;;;;;;;4964320;28;20469;-79
2024/01/26 02:18:32;;;;;;;0.10;0.10;;;;;;;;;;4969965;28;20059;-80
2024/01/26 02:20:59;;;;;;;0.10;0.10;;;;;;;;;;4963145;28;20873;-83
2024/01/26 02:23:27;;;;;;;0.28;0.28;;;;;;;;;;4965698;28;20096;-80
2024/01/26 02:25:54;;;;;;;0.30;0.30;;;;;;;;;;4971786;28;20097;-79
2024/01/26 02:28:23;;;;;;;2.58;2.10;;;;;;;;;;4975969;28;20137;-79
2024/01/26 02:30:50;;;;;;;1.55;0.82;;;;;;;;;;4969848;28;20054;-85
2024/01/26 02:33:17;;;;;;;3.10;2.42;;;;;;;;;;4960955;28;20050;-78
2024/01/26 02:35:45;;;;;;;0.40;0.40;;;;;;;;;;4970022;28;20117;-83
2024/01/26 02:38:13;;;;;;;1.98;0.93;;;;;;;;;;4968879;28;20118;-80
2024/01/26 02:40:40;;;;;;;5.28;3.45;;;;;;;;;;4970503;28;20513;-79
2024/01/26 02:43:08;;;;;;;1.23;1.17;;;;;;;;;;4967192;28;20053;-78
2024/01/26 02:45:35;;;;;;;0.55;0.55;;;;;;;;;;4969964;28;20086;-85
2024/01/26 02:48:03;;;;;;;0.32;0.32;;;;;;;;;;4972907;28;20098;-81
2024/01/26 02:50:30;;;;;;;0.70;0.70;;;;;;;;;;4977072;28;20302;-81
2024/01/26 02:52:58;;;;;;;0.20;0.15;;;;;;;;;;4974435;28;20054;-81
2024/01/26 02:55:26;;;;;;;1.40;1.23;;;;;;;;;;4973077;28;20066;-81
2024/01/26 02:57:53;;;;;;;1.67;1.23;;;;;;;;;;4969249;28;20576;-84
2024/01/26 03:00:21;;;;;;;1.35;1.30;;;;;;;;;;4970692;28;20046;-86
2024/01/26 03:02:48;;;;;;;1.88;1.77;;;;;;;;;;4972751;28;20520;-82
2024/01/26 03:05:16;;;;;;;2.63;1.70;;;;;;;;;;4979499;28;20512;-81
2024/01/26 03:07:43;;;;;;;2.42;2.08;;;;;;;;;;4969426;28;20095;-80
2024/01/26 03:10:10;;;;;;;6.35;1.27;;;;;;;;;;4968304;28;20575;-80
2024/01/26 03:12:38;;;;;;;0.85;0.85;;;;;;;;;;4970927;28;20074;-80
2024/01/26 03:15:06;;;;;;;0.22;0.22;;;;;;;;;;4972142;28;20057;-79
2024/01/26 03:17:33;;;;;;;1.33;1.23;;;;;;;;;;4971109;28;20266;-79
2024/01/26 03:20:01;;;;;;;0.80;0.80;;;;;;;;;;4964871;28;20058;-80
2024/01/26 03:22:28;;;;;;;0.85;0.85;;;;;;;;;;4971882;28;20039;-80
2024/01/26 03:24:55;;;;;;;0.32;0.32;;;;;;;;;;4967592;28;20050;-80
2024/01/26 03:27:24;;;;;;;1.88;0.52;;;;;;;;;;4969894;28;20074;-80
2024/01/26 03:29:52;;;;;;;9.07;3.05;;;;;;;;;;4975802;28;20054;-80
2024/01/26 03:32:20;;;;;;;1.70;0.70;;;;;;;;;;4971292;28;20070;-79
2024/01/26 03:34:47;;;;;;;1.38;0.68;;;;;;;;;;4966896;28;20043;-81
2024/01/26 03:37:15;;;;;;;0.20;0.20;;;;;;;;;;4968185;28;20050;-78
2024/01/26 03:39:42;;;;;;;0.10;0.10;;;;;;;;;;4967271;28;20050;-79
2024/01/26 03:42:11;;;;;;;0.32;0.32;;;;;;;;;;4969137;28;20046;-81
2024/01/26 03:44:40;;;;;;;6.22;3.35;;;;;;;;;;4971505;28;20447;-81
2024/01/26 03:47:08;;;;;;;0.30;0.30;;;;;;;;;;4969072;28;20405;-81
2024/01/26 03:49:36;;;;;;;0.63;0.63;;;;;;;;;;4968550;28;20576;-81
2024/01/26 03:52:04;;;;;;;0.35;0.35;;;;;;;;;;4964615;28;20683;-80
2024/01/26 03:54:32;;;;;;;5.57;1.38;;;;;;;;;;4971633;28;20057;-80
2024/01/26 03:56:59;;;;;;;3.25;2.92;;;;;;;;;;4971617;28;20102;-81
2024/01/26 03:59:27;;;;;;;1.13;1.02;;;;;;;;;;4975955;28;20058;-81
2024/01/26 04:01:54;;;;;;;1.33;1.25;;;;;;;;;;4968524;28;20062;-78
2024/01/26 04:04:21;;;;;;;1.38;0.95;;;;;;;;;;4983163;28;20078;-80
2024/01/26 04:06:49;;;;;;;0.43;0.43;;;;;;;;;;4982188;28;20050;-83
2024/01/26 04:09:16;;;;;;;10.48;3.00;;;;;;;;;;4983890;28;20170;-81
2024/01/26 04:11:44;;;;;;;1.00;1.00;;;;;;;;;;4980946;28;20248;-80
2024/01/26 04:14:11;;;;;;;1.65;1.30;;;;;;;;;;4980684;28;20062;-80
2024/01/26 04:16:39;;;;;;;0.40;0.40;;;;;;;;;;4970405;28;20571;-80
2024/01/26 04:19:06;;;;;;;0.50;0.50;;;;;;;;;;4974227;28;20460;-80
2024/01/26 04:21:34;;;;;;;0.73;0.73;;;;;;;;;;4982498;28;20557;-79
2024/01/26 04:24:01;;;;;;;1.77;1.55;;;;;;;;;;4970559;28;20044;-79
2024/01/26 04:26:31;;;;;;;1.27;1.13;;;;;;;;;;4970239;28;20108;-80
2024/01/26 04:28:58;;;;;;;1.25;1.25;;;;;;;;;;4975260;28;20107;-81
2024/01/26 04:31:25;;;;;;;1.17;0.45;;;;;;;;;;4974754;28;20093;-80
2024/01/26 04:33:53;;;;;;;2.40;0.95;;;;;;;;;;4974637;28;20078;-82
2024/01/26 04:36:21;;;;;;;4.20;1.85;;;;;;;;;;4990306;28;20049;-83
2024/01/26 04:38:48;;;;;;;0.30;0.30;;;;;;;;;;4976334;28;20070;-80
2024/01/26 04:41:15;;;;;;;1.85;1.13;;;;;;;;;;4968757;28;20051;-79
2024/01/26 04:43:43;;;;;;;0.63;0.63;;;;;;;;;;4972621;28;20050;-80
2024/01/26 04:46:11;;;;;;;1.58;1.50;;;;;;;;;;4975793;28;20262;-80
2024/01/26 04:48:38;;;;;;;3.13;1.25;;;;;;;;;;4975559;28;20097;-82
2024/01/26 04:51:06;;;;;;;2.45;2.35;;;;;;;;;;4987228;28;20072;-79
2024/01/26 04:53:33;;;;;;;0.93;0.93;;;;;;;;;;4973935;28;20043;-79
2024/01/26 04:56:01;;;;;;;0.73;0.73;;;;;;;;;;4975499;28;20097;-81
2024/01/26 04:58:28;;;;;;;0.30;0.30;;;;;;;;;;4974607;28;20472;-81
2024/01/26 05:00:55;;;;;;;5.05;2.63;;;;;;;;;;4981093;28;20046;-81
2024/01/26 05:03:23;;;;;;;0.13;0.13;;;;;;;;;;4959939;28;20054;-81
2024/01/26 05:05:51;;;;;;;0.10;0.10;;;;;;;;;;4959449;28;20047;-80
2024/01/26 05:08:18;;;;;;;0.30;0.30;;;;;;;;;;4967638;28;20057;-80
2024/01/26 05:10:46;;;;;;;1.27;1.17;;;;;;;;;;4947820;28;20188;-84
2024/01/26 05:13:13;;;;;;;0.68;0.68;;;;;;;;;;4970630;28;20051;-85
2024/01/26 05:15:41;;;;;;;1.60;1.52;;;;;;;;;;4966869;28;20051;-82
2024/01/26 05:18:08;;;;;;;0.90;0.90;;;;;;;;;;4961561;28;20047;-78
2024/01/26 05:20:36;;;;;;;1.50;1.40;;;;;;;;;;4957998;28;20092;-79
2024/01/26 05:23:04;;;;;;;2.03;1.70;;;;;;;;;;4957953;28;20072;-78
2024/01/26 05:25:32;;;;;;;2.35;2.15;;;;;;;;;;4956996;28;20047;-79
2024/01/26 05:27:59;;;;;;;0.20;0.20;;;;;;;;;;4959357;28;20042;-81
2024/01/26 05:30:27;;;;;;;1.27;1.17;;;;;;;;;;4963887;28;20058;-80
2024/01/26 05:32:55;;;;;;;1.38;1.10;;;;;;;;;;4960032;28;20059;-80
2024/01/26 05:35:24;;;;;;;1.35;0.43;;;;;;;;;;4963791;28;20125;-80
2024/01/26 05:37:52;;;;;;;1.63;1.52;;;;;;;;;;4962986;28;20076;-81
2024/01/26 05:40:19;;;;;;;0.55;0.50;;;;;;;;;;4969539;28;20153;-79
2024/01/26 05:42:46;;;;;;;2.10;1.48;;;;;;;;;;4957448;28;20078;-81
2024/01/26 05:45:15;;;;;;;1.17;0.75;;;;;;;;;;4970379;28;20063;-81
2024/01/26 05:47:43;;;;;;;1.10;1.10;;;;;;;;;;4973749;28;20479;-81
2024/01/26 05:50:11;;;;;;;1.80;1.02;;;;;;;;;;4972762;28;20050;-80
2024/01/26 05:52:40;;;;;;;0.85;0.85;;;;;;;;;;4974227;28;20046;-81
2024/01/26 05:55:08;;;;;;;4.18;1.65;;;;;;;;;;4975669;28;20054;-80
2024/01/26 05:57:36;;;;;;;3.92;1.55;;;;;;;;;;4975573;28;20054;-81
2024/01/26 06:00:04;;;;;;;1.48;1.38;;;;;;;;;;4972953;28;20059;-81
2024/01/26 06:02:32;;;;;;;2.67;1.40;;;;;;;;;;4973287;28;20053;-81
2024/01/26 06:04:59;;;;;;;0.52;0.52;;;;;;;;;;4973159;28;20050;-81
2024/01/26 06:07:27;;;;;;;4.45;2.72;;;;;;;;;;4955757;28;21849;-83
2024/01/26 06:09:54;;;;;;;2.40;1.52;;;;;;;;;;4967924;28;20078;-83
2024/01/26 06:12:21;;;;;;;2.45;1.65;;;;;;;;;;4971940;28;20050;-81
2024/01/26 06:14:49;;;;;;;2.30;1.73;;;;;;;;;;4969350;28;20068;-84
2024/01/26 06:17:17;;;;;;;2.17;1.77;;;;;;;;;;4968321;28;20058;-81
2024/01/26 06:19:44;;;;;;;1.50;1.38;;;;;;;;;;4972697;28;20085;-85
2024/01/26 06:22:12;;;;;;;0.90;0.90;;;;;;;;;;4973064;28;20369;-81
2024/01/26 06:24:39;;;;;;;3.80;2.45;;;;;;;;;;4970338;28;20051;-80
2024/01/26 06:27:06;;;;;;;1.33;1.23;;;;;;;;;;4971484;28;20076;-81
2024/01/26 06:29:37;;;;;;;0.20;0.20;;;;;;;;;;4972646;28;20078;-80
2024/01/26 06:32:05;;;;;;;1.67;1.58;;;;;;;;;;4977978;28;20046;-80
2024/01/26 06:34:33;;;;;;;1.55;1.45;;;;;;;;;;4971899;28;20128;-80
2024/01/26 06:37:01;;;;;;;0.40;0.40;;;;;;;;;;4971257;28;20042;-80
2024/01/26 06:39:29;;;;;;;1.08;1.08;;;;;;;;;;4952173;28;20425;-80
2024/01/26 06:41:56;;;;;;;0.32;0.32;;;;;;;;;;4965374;28;20043;-81
2024/01/26 06:44:23;;;;;;;0.50;0.50;;;;;;;;;;4942944;28;20059;-83
2024/01/26 06:46:51;;;;;;;1.75;1.65;;;;;;;;;;4966338;28;20074;-80
2024/01/26 06:49:18;;;;;;;0.63;0.63;;;;;;;;;;4963732;28;20046;-79
2024/01/26 06:51:46;;;;;;;2.58;2.38;;;;;;;;;;4970140;28;20045;-82
2024/01/26 06:54:13;;;;;;;1.95;0.80;;;;;;;;;;4969729;28;20046;-80
2024/01/26 06:56:41;;;;;;;0.10;0.10;;;;;;;;;;4968418;28;20053;-85
2024/01/26 06:59:08;;;;;;;2.35;1.23;;;;;;;;;;4959917;28;20061;-81
2024/01/26 07:01:35;;;;;;;0.70;0.30;;;;;;;;;;4971975;28;20089;-81
2024/01/26 07:04:03;;;;;;;0.20;0.20;;;;;;;;;;4967547;28;20057;-80
2024/01/26 07:06:31;;;;;;;3.55;3.35;;;;;;;;;;4972800;28;20064;-80
2024/01/26 07:08:59;;;;;;;0.20;0.20;;;;;;;;;;4973014;28;20106;-80
2024/01/26 07:11:28;;;;;;;1.23;1.23;;;;;;;;;;4971001;28;20070;-79
2024/01/26 07:13:57;;;;;;;1.85;1.00;;;;;;;;;;4965928;28;20936;-78
2024/01/26 07:16:29;;;;;;;3.35;2.30;;;;;;;;;;4954606;28;20047;-79
2024/01/26 07:18:57;;;;;;;3.70;3.13;;;;;;;;;;4973422;28;20074;-79
2024/01/26 07:21:24;;;;;;;6.53;0.47;;;;;;;;;;4957369;28;20137;-80
2024/01/26 07:23:52;;;;;;;3.58;2.45;;;;;;;;;;4968038;28;20074;-81
2024/01/26 07:26:20;;;;;;;0.25;0.25;;;;;;;;;;4970938;28;20696;-80
2024/01/26 07:28:47;;;;;;;1.27;1.20;;;;;;;;;;4967508;28;20465;-80
2024/01/26 07:31:15;;;;;;;1.00;1.00;;;;;;;;;;4963322;28;20054;-80
2024/01/26 07:33:43;;;;;;;0.40;0.40;;;;;;;;;;4977613;28;20115;-80
2024/01/26 07:36:10;;;;;;;3.60;2.63;;;;;;;;;;4974676;28;20047;-80
2024/01/26 07:38:38;;;;;;;0.82;0.82;;;;;;;;;;4952106;28;20039;-80
2024/01/26 07:41:06;;;;;;;4.53;1.30;;;;;;;;;;4965347;28;20503;-79
2024/01/26 07:43:33;;;;;;;3.42;1.88;;;;;;;;;;4972075;28;20042;-79
2024/01/26 07:46:01;;;;;;;0.90;0.90;;;;;;;;;;4971658;28;20109;-80
2024/01/26 07:48:28;;;;;;;1.20;1.10;;;;;;;;;;4972436;28;20081;-81
2024/01/26 07:50:56;;;;;;;2.25;2.08;;;;;;;;;;4978260;28;20149;-81
2024/01/26 07:53:23;;;;;;;3.83;3.47;;;;;;;;;;4970624;28;20058;-81
2024/01/26 07:55:50;;;;;;;0.38;0.38;;;;;;;;;;4965844;28;20057;-80
2024/01/26 07:58:18;;;;;;;0.22;0.22;;;;;;;;;;4970534;28;20070;-80
2024/01/26 08:00:47;;;;;;;1.30;1.20;;;;;;;;;;4968874;28;20059;-80
2024/01/26 08:03:14;;;;;;;4.57;1.10;;;;;;;;;;4975175;28;20436;-80
2024/01/26 08:05:42;;;;;;;0.52;0.52;;;;;;;;;;4975352;28;20061;-81
2024/01/26 08:08:09;;;;;;;0.85;0.82;;;;;;;;;;4977085;28;20150;-81
2024/01/26 08:10:37;;;;;;;1.40;1.33;;;;;;;;;;4972355;28;20152;-83
2024/01/26 08:13:04;;;;;;;1.20;1.15;;;;;;;;;;4967129;28;20765;-81
2024/01/26 08:15:32;;;;;;;0.80;0.77;;;;;;;;;;4971478;28;20047;-80
2024/01/26 08:18:01;;;;;;;0.50;0.50;;;;;;;;;;4971193;28;20472;-80
2024/01/26 08:20:28;;;;;;;3.40;1.73;;;;;;;;;;4968899;28;20049;-80
2024/01/26 08:22:56;;;;;;;0.98;0.98;;;;;;;;;;4967185;28;20457;-80
2024/01/26 08:25:24;;;;;;;0.52;0.52;;;;;;;;;;4970715;28;20058;-80
2024/01/26 08:27:53;;;;;;;0.68;0.68;;;;;;;;;;4965631;28;20054;-81
2024/01/26 08:30:22;;;;;;;1.55;1.13;;;;;;;;;;4983000;28;20346;-80
2024/01/26 08:32:51;;;;;;;0.47;0.47;;;;;;;;;;4965749;28;20728;-80
2024/01/26 08:35:19;;;;;;;1.77;1.25;;;;;;;;;;4973679;28;20138;-83
2024/01/26 08:37:47;;;;;;;0.22;0.22;;;;;;;;;;4969190;28;20548;-83
2024/01/26 08:40:15;;;;;;;1.13;1.13;;;;;;;;;;4970549;28;20137;-81
2024/01/26 08:42:44;;;;;;;1.17;1.10;;;;;;;;;;4974679;28;20055;-81
2024/01/26 08:45:12;;;;;;;1.30;1.27;;;;;;;;;;4971529;28;20054;-81
2024/01/26 08:47:39;;;;;;;1.67;1.58;;;;;;;;;;4963487;28;20121;-80
2024/01/26 08:50:07;;;;;;;1.55;1.23;;;;;;;;;;4967319;28;20559;-80
2024/01/26 08:52:35;;;;;;;0.77;0.77;;;;;;;;;;4963591;28;20571;-80
2024/01/26 08:55:03;;;;;;;0.40;0.40;;;;;;;;;;4962468;28;20097;-78
2024/01/26 08:57:30;;;;;;;3.60;2.90;;;;;;;;;;4965088;28;20050;-80
2024/01/26 08:59:59;;;;;;;2.15;2.00;;;;;;;;;;4950759;28;20880;-80
2024/01/26 09:02:30;;;;;;;2.45;1.40;;;;;;;;;;4963709;28;20062;-84
2024/01/26 09:04:57;;;;;;;1.45;1.35;;;;;;;;;;4967398;28;20050;-81
2024/01/26 09:07:28;;;;;;;1.95;1.70;;;;;;;;;;4971796;28;20043;-81
2024/01/26 09:09:55;;;;;;;4.78;2.03;;;;;;;;;;4967755;28;20043;-81
2024/01/26 09:12:23;;;;;;;1.80;0.70;;;;;;;;;;4972193;28;20066;-81
2024/01/26 09:14:50;;;;;;;3.83;3.08;;;;;;;;;;4967544;28;20039;-81
2024/01/26 09:17:18;;;;;;;1.73;1.63;;;;;;;;;;4974475;28;20045;-81
2024/01/26 09:19:46;;;;;;;0.20;0.20;;;;;;;;;;4978460;28;20482;-81
2024/01/26 09:22:14;;;;;;;3.05;2.75;;;;;;;;;;4967655;28;20254;-81
2024/01/26 09:24:41;;;;;;;2.53;2.33;;;;;;;;;;4966215;28;20809;-81
2024/01/26 09:27:08;;;;;;;1.05;1.05;;;;;;;;;;4972858;28;20066;-81
2024/01/26 09:29:36;;;;;;;5.05;2.25;;;;;;;;;;4970660;28;20057;-81
2024/01/26 09:32:04;;;;;;;2.45;2.25;;;;;;;;;;4968560;28;20070;-81
2024/01/26 09:34:32;;;;;;;2.15;1.05;;;;;;;;;;4972519;28;20129;-80
2024/01/26 09:36:59;;;;;;;1.27;1.20;;;;;;;;;;4970869;28;20049;-80
2024/01/26 09:39:27;;;;;;;0.68;0.68;;;;;;;;;;4968815;28;20047;-78
2024/01/26 09:41:55;;;;;;;2.67;2.25;;;;;;;;;;4975624;28;20517;-79
2024/01/26 09:44:23;;;;;;;2.72;2.50;;;;;;;;;;4975330;28;20058;-80
2024/01/26 09:46:50;;;;;;;1.10;1.10;;;;;;;;;;4976575;28;20075;-81
2024/01/26 09:49:18;;;;;;;2.30;2.17;;;;;;;;;;4975472;28;20133;-82
2024/01/26 09:51:45;;;;;;;0.63;0.63;;;;;;;;;;4973153;28;20043;-81
2024/01/26 09:54:13;;;;;;;0.60;0.60;;;;;;;;;;4971610;28;20113;-78
2024/01/26 09:56:44;;;;;;;1.10;0.68;;;;;;;;;;4971071;28;20126;-84
2024/01/26 09:59:12;;;;;;;0.40;0.40;;;;;;;;;;4978402;28;20405;-81
2024/01/26 10:01:41;;;;;;;1.25;1.20;;;;;;;;;;4979076;28;20058;-81
2024/01/26 10:04:09;;;;;;;0.32;0.32;;;;;;;;;;4984405;28;20053;-83
2024/01/26 10:06:37;;;;;;;1.25;1.20;;;;;;;;;;4978952;28;20076;-84
2024/01/26 10:09:08;;;;;;;1.90;1.80;;;;;;;;;;4975427;28;20050;-79
2024/01/26 10:11:39;;;;;;;0.73;0.73;;;;;;;;;;4976794;28;20050;-79
2024/01/26 10:14:07;;;;;;;0.57;0.57;;;;;;;;;;4949713;28;20066;-81
2024/01/26 10:16:35;;;;;;;1.23;1.17;;;;;;;;;;4977259;28;20054;-81
2024/01/26 10:19:02;;;;;;;0.40;0.40;;;;;;;;;;4968395;28;20058;-79
2024/01/26 10:21:30;;;;;;;0.22;0.22;;;;;;;;;;4964819;28;20121;-81
2024/01/26 10:23:58;;;;;;;0.22;0.22;;;;;;;;;;4970568;28;20046;-80
2024/01/26 10:26:28;;;;;;;0.45;0.45;;;;;;;;;;4968388;28;20054;-79
2024/01/26 10:28:56;;;;;;;1.15;1.05;;;;;;;;;;4962660;28;20073;-81
2024/01/26 10:31:26;;;;;;;0.75;0.75;;;;;;;;;;4970751;28;20097;-82
2024/01/26 10:33:55;;;;;;;0.85;0.20;;;;;;;;;;4974206;28;20057;-81
2024/01/26 10:36:23;;;;;;;0.20;0.20;;;;;;;;;;4957315;28;20046;-78
2024/01/26 10:38:51;;;;;;;1.00;1.00;;;;;;;;;;4968089;28;20481;-81
2024/01/26 10:41:21;;;;;;;1.90;1.77;;;;;;;;;;4984761;28;20078;-81
2024/01/26 10:43:55;;;;;;;2.05;1.13;;;;;;;;;;4975937;28;20565;-81
2024/01/26 10:46:23;;;;;;;4.15;1.75;;;;;;;;;;4975958;28;20113;-81
2024/01/26 10:48:51;;;;;;;1.30;1.23;;;;;;;;;;4983179;28;20513;-81
2024/01/26 10:51:20;;;;;;;4.00;3.53;;;;;;;;;;4972647;28;20049;-81
2024/01/26 10:53:49;;;;;;;6.07;3.35;;;;;;;;;;4972406;28;20038;-81
2024/01/26 10:56:17;;;;;;;1.95;1.45;;;;;;;;;;4972816;28;20034;-81
2024/01/26 10:58:44;;;;;;;4.47;2.25;;;;;;;;;;4976562;28;20839;-81
2024/01/26 11:01:12;;;;;;;1.90;1.67;;;;;;;;;;4967266;28;20046;-82
2024/01/26 11:03:40;;;;;;;0.55;0.55;;;;;;;;;;4970868;28;20056;-81
2024/01/26 11:06:09;;;;;;;3.67;2.50;;;;;;;;;;4971741;28;20049;-81
2024/01/26 11:08:37;;;;;;;5.20;2.17;;;;;;;;;;4972670;28;20129;-82
2024/01/26 11:11:06;;;;;;;4.78;3.92;;;;;;;;;;4970565;28;20054;-81
2024/01/26 11:13:37;;;;;;;3.40;1.50;;;;;;;;;;4962708;28;20113;-81
2024/01/26 11:16:06;;;;;;;1.55;1.38;;;;;;;;;;4963047;28;20054;-81
2024/01/26 11:18:38;;;;;;;0.45;0.45;;;;;;;;;;4954120;28;20101;-79
2024/01/26 11:21:05;;;;;;;6.00;4.20;;;;;;;;;;4974518;28;20051;-79
2024/01/26 11:23:41;;;;;;;1.58;1.48;;;;;;;;;;4976732;28;20078;-79
2024/01/26 11:26:16;;;;;;;0.40;0.40;;;;;;;;;;4957300;28;20058;-80
2024/01/26 11:28:45;;;;;;;3.35;2.67;;;;;;;;;;4963743;28;21085;-79
2024/01/26 11:31:28;;;;;;;1.35;1.13;;;;;;;;;;4961922;28;20061;-82
2024/01/26 11:33:56;;;;;;;1.85;1.75;;;;;;;;;;4970621;28;20053;-82
2024/01/26 11:36:23;;;;;;;0.98;0.95;;;;;;;;;;5006141;23;20154;-79
2024/01/26 11:38:55;;;;;;;0.88;0.88;;;;;;;;;;5001552;28;20514;-80
2024/01/26 11:41:23;;;;;;;0.35;0.35;;;;;;;;;;5000722;28;20058;-79
2024/01/26 11:43:52;;;;;;;1.00;0.82;;;;;;;;;;4954140;28;20054;-80
2024/01/26 11:46:21;;;;;;;4.65;1.52;;;;;;;;;;4992101;28;20073;-81
2024/01/26 11:48:50;;;;;;;2.30;1.38;;;;;;;;;;4994770;28;20050;-81
2024/01/26 11:51:18;;;;;;;0.85;0.85;;;;;;;;;;4994870;28;20046;-81
2024/01/26 11:53:46;;;;;;;0.70;0.70;;;;;;;;;;4997965;28;20145;-79
2024/01/26 11:56:14;;;;;;;0.68;0.68;;;;;;;;;;4996872;28;20064;-80
2024/01/26 11:58:42;;;;;;;3.50;2.53;;;;;;;;;;4992599;28;20046;-80
2024/01/26 12:01:09;;;;;;;0.60;0.60;;;;;;;;;;4987394;28;20061;-80
2024/01/26 12:03:37;;;;;;;1.77;1.65;;;;;;;;;;4998101;28;20412;-80
2024/01/26 12:06:06;;;;;;;0.57;0.57;;;;;;;;;;4994873;28;20126;-80
2024/01/26 12:08:34;;;;;;;0.77;0.77;;;;;;;;;;4998282;28;20571;-80
2024/01/26 12:11:02;;;;;;;0.57;0.55;;;;;;;;;;4995723;28;20657;-80
2024/01/26 12:13:30;;;;;;;1.20;1.20;;;;;;;;;;4997796;28;20061;-80
2024/01/26 12:15:57;;;;;;;0.30;0.30;;;;;;;;;;4999774;28;20044;-80
2024/01/26 12:18:25;;;;;;;1.40;1.30;;;;;;;;;;5000013;28;20050;-80
2024/01/26 12:20:53;;;;;;;2.55;2.28;;;;;;;;;;4998550;28;20057;-80
2024/01/26 12:23:21;;;;;;;5.07;3.95;;;;;;;;;;4999561;28;20128;-80
2024/01/26 12:25:53;;;;;;;0.60;0.60;;;;;;;;;;5002110;28;20046;-80
2024/01/26 12:28:21;;;;;;;0.52;0.52;;;;;;;;;;5005768;28;20042;-81
2024/01/26 12:30:49;;;;;;;0.65;0.55;;;;;;;;;;4998297;28;20038;-80
2024/01/26 12:33:16;;;;;;;0.77;0.77;;;;;;;;;;5007130;28;20057;-80
2024/01/26 12:35:46;;;;;;;0.52;0.52;;;;;;;;;;5004940;28;20042;-80
2024/01/26 12:38:15;;;;;;;0.30;0.30;;;;;;;;;;5003803;28;20081;-80
2024/01/26 12:40:43;;;;;;;0.28;0.25;;;;;;;;;;5003012;28;20199;-81
2024/01/26 12:43:11;;;;;;;0.50;0.50;;;;;;;;;;5001922;28;20184;-81
2024/01/26 12:45:41;;;;;;;0.47;0.47;;;;;;;;;;5004994;28;20073;-81
2024/01/26 12:48:08;;;;;;;0.45;0.45;;;;;;;;;;5011098;28;20484;-81
2024/01/26 12:50:36;;;;;;;2.10;1.95;;;;;;;;;;5001596;28;20123;-82
2024/01/26 12:53:04;;;;;;;0.50;0.50;;;;;;;;;;5007475;28;20077;-82
2024/01/26 12:55:32;;;;;;;0.40;0.40;;;;;;;;;;5010571;28;20062;-82
2024/01/26 12:57:59;;;;;;;1.08;0.88;;;;;;;;;;5000451;28;20042;-82
2024/01/26 13:00:26;;;;;;;0.55;0.55;;;;;;;;;;4988723;28;20152;-81
2024/01/26 13:02:58;;;;;;;0.20;0.20;;;;;;;;;;5003890;28;20042;-82
2024/01/26 13:05:25;;;;;;;0.25;0.25;;;;;;;;;;5006199;28;20045;-82
2024/01/26 13:07:58;;;;;;;0.20;0.20;;;;;;;;;;5009675;28;20045;-82
2024/01/26 13:10:25;;;;;;;2.95;0.65;;;;;;;;;;5007386;28;20068;-83
2024/01/26 13:12:53;;;;;;;0.68;0.65;;;;;;;;;;5000180;28;20070;-82
2024/01/26 13:15:20;;;;;;;0.47;0.47;;;;;;;;;;5005803;28;20061;-82
2024/01/26 13:17:49;;;;;;;2.05;1.92;;;;;;;;;;5005837;28;20190;-82
2024/01/26 13:20:20;;;;;;;1.70;1.60;;;;;;;;;;5004886;28;20030;-81
2024/01/26 13:22:48;;;;;;;1.58;1.48;;;;;;;;;;5001932;28;20046;-82
2024/01/26 13:25:16;;;;;;;0.82;0.82;;;;;;;;;;5005054;28;20160;-83
2024/01/26 13:27:44;;;;;;;0.20;0.20;;;;;;;;;;4993416;28;20048;-82
2024/01/26 13:30:13;;;;;;;0.10;0.10;;;;;;;;;;4999997;28;20053;-82
2024/01/26 13:32:43;;;;;;;0.60;0.60;;;;;;;;;;5001629;28;20049;-82
2024/01/26 13:35:11;;;;;;;0.95;0.95;;;;;;;;;;5005444;28;20049;-81
2024/01/26 13:37:39;;;;;;;0.40;0.40;;;;;;;;;;4998788;28;20137;-82
2024/01/26 13:40:09;;;;;;;1.08;0.65;;;;;;;;;;5000446;28;20042;-82
2024/01/26 13:42:37;;;;;;;0.10;0.10;;;;;;;;;;4999683;28;20060;-82
2024/01/26 13:45:06;;;;;;;0.93;0.90;;;;;;;;;;5001849;28;20261;-81
2024/01/26 13:47:33;;;;;;;0.52;0.45;;;;;;;;;;5005455;28;20046;-81
2024/01/26 13:50:01;;;;;;;2.78;2.65;;;;;;;;;;5001276;28;20130;-82
2024/01/26 13:52:28;;;;;;;0.63;0.63;;;;;;;;;;5000104;28;20049;-82
2024/01/26 13:54:57;;;;;;;5.28;1.77;;;;;;;;;;4998761;28;20535;-82
2024/01/26 13:57:29;;;;;;;1.65;1.50;;;;;;;;;;5001170;28;20057;-82
2024/01/26 13:59:59;;;;;;;;;;;;;;;;;;5003539;28;20068;-82
2024/01/26 14:02:45;;;;;;;12.65;1.13;;;;;;;;;;4996740;28;19922;-81
2024/01/26 14:05:13;;;;;;;3.03;2.78;;;;;;;;;;5003762;28;20385;-83
2024/01/26 14:07:40;;;;;;;4.55;2.03;;;;;;;;;;5000414;28;20050;-82
2024/01/26 14:10:11;;;;;;;1.92;1.73;;;;;;;;;;5004254;28;20508;-82
2024/01/26 14:12:39;;;;;;;1.27;1.17;;;;;;;;;;5006190;28;20065;-82
2024/01/26 14:15:13;;;;;;;0.73;0.73;;;;;;;;;;5001134;28;20060;-82
2024/01/26 14:17:42;;;;;;;1.40;1.30;;;;;;;;;;5005026;28;20120;-82
2024/01/26 14:20:10;;;;;;;1.95;1.13;;;;;;;;;;5004596;28;20109;-81
2024/01/26 14:22:38;;;;;;;0.73;0.73;;;;;;;;;;5005005;28;20045;-82
2024/01/26 14:25:05;;;;;;;1.65;1.65;;;;;;;;;;5005016;28;20044;-81
2024/01/26 14:27:33;;;;;;;3.35;2.33;;;;;;;;;;5004916;28;20069;-83
2024/01/26 14:30:00;;;;;;;0.52;0.52;;;;;;;;;;5000500;28;20058;-81
2024/01/26 14:32:28;;;;;;;0.80;0.80;;;;;;;;;;5001064;28;20038;-82
2024/01/26 14:34:56;;;;;;;1.05;1.05;;;;;;;;;;5006632;28;20182;-82
2024/01/26 14:37:24;;;;;;;0.68;0.50;;;;;;;;;;5000303;28;20101;-82
2024/01/26 14:39:51;;;;;;;0.40;0.40;;;;;;;;;;5003568;28;20657;-81
2024/01/26 14:42:19;;;;;;;2.25;1.52;;;;;;;;;;5009815;28;20049;-81
2024/01/26 14:44:47;;;;;;;1.23;1.17;;;;;;;;;;4996969;28;20073;-81
2024/01/26 14:47:15;;;;;;;0.75;0.55;;;;;;;;;;5004306;28;20041;-81